?

RMK を語るブログたち RMK ブログランキング

RMKについて語るブログを集めたブログランキングです。

  • 1
  • 23.95bg
blogram成分

顔文字

10

自動車

8

楽しみたい

6

健康

6

家事

4

IZUMIXのドリフト.ファッション日記

スキンケアチェンジ

カウンターに行ったのでついでにRMKも行って来ました(´◡͐`)

  • 4
  • 0.27bg
blogram成分

化粧

10

経済

10

美容

10

恋愛・結婚

10

健康

8

こすめ日記。

不思議な粉と魔法のまつげ。

久しぶりに買ったアイシャドウパレットはRMK ミスティークアイズ#02。

  • 9
  • 0.01bg
blogram成分

行事・季節

10

生活家電

2

旅行

2

花・園芸

2

おでかけ

2

気象予報士の航空気象

今朝は霧、発生せず

RJAA 182030Z 02017KT 9999 FEW007 SCT015 BKN050 12/11 Q1013 NOSIG RMK 1ST007 4CU015 6SC050 A2992

RMK カテゴリのブログは、こんなカテゴリーにも高い関心

ココポイ!ナビ
みんなのネゴト
?
Now Loading
「注目ネゴト」へ

このページのトップへ